sensor_id;sensor_type;location;lat;lon;timestamp;P1;durP1;ratioP1;P2;durP2;ratioP2
21000;SDS011;10658;50.920;12.238;2023-07-20T00:01:12;9.00;;;4.47;;
21000;SDS011;10658;50.920;12.238;2023-07-20T00:05:13;6.57;;;3.75;;
21000;SDS011;10658;50.920;12.238;2023-07-20T00:09:14;14.00;;;5.15;;
21000;SDS011;10658;50.920;12.238;2023-07-20T00:13:15;8.30;;;3.88;;
21000;SDS011;10658;50.920;12.238;2023-07-20T00:17:18;10.13;;;3.67;;
21000;SDS011;10658;50.920;12.238;2023-07-20T00:21:19;7.07;;;3.22;;
21000;SDS011;10658;50.920;12.238;2023-07-20T00:25:20;10.10;;;3.70;;
21000;SDS011;10658;50.920;12.238;2023-07-20T00:29:21;7.15;;;3.20;;
21000;SDS011;10658;50.920;12.238;2023-07-20T00:33:22;6.95;;;2.95;;
21000;SDS011;10658;50.920;12.238;2023-07-20T00:48:08;7.45;;;3.05;;
21000;SDS011;10658;50.920;12.238;2023-07-20T00:52:10;14.13;;;4.07;;
21000;SDS011;10658;50.920;12.238;2023-07-20T00:56:12;10.60;;;3.08;;
21000;SDS011;10658;50.920;12.238;2023-07-20T01:00:13;14.15;;;3.70;;
21000;SDS011;10658;50.920;12.238;2023-07-20T01:04:15;13.50;;;3.88;;
21000;SDS011;10658;50.920;12.238;2023-07-20T01:08:24;13.40;;;3.05;;
21000;SDS011;10658;50.920;12.238;2023-07-20T01:12:31;15.68;;;3.47;;
21000;SDS011;10658;50.920;12.238;2023-07-20T01:16:40;8.18;;;3.42;;
21000;SDS011;10658;50.920;12.238;2023-07-20T01:20:40;18.98;;;4.43;;
21000;SDS011;10658;50.920;12.238;2023-07-20T01:24:50;12.38;;;3.05;;
21000;SDS011;10658;50.920;12.238;2023-07-20T01:33:30;6.93;;;2.47;;
21000;SDS011;10658;50.920;12.238;2023-07-20T01:37:34;11.02;;;2.97;;
21000;SDS011;10658;50.920;12.238;2023-07-20T01:41:36;8.05;;;2.53;;
21000;SDS011;10658;50.920;12.238;2023-07-20T01:45:37;8.80;;;3.40;;
21000;SDS011;10658;50.920;12.238;2023-07-20T01:49:38;7.55;;;3.38;;
21000;SDS011;10658;50.920;12.238;2023-07-20T01:53:40;10.35;;;3.13;;
21000;SDS011;10658;50.920;12.238;2023-07-20T01:57:41;6.97;;;2.90;;
21000;SDS011;10658;50.920;12.238;2023-07-20T02:01:42;6.82;;;3.28;;
21000;SDS011;10658;50.920;12.238;2023-07-20T02:05:42;5.25;;;3.17;;
21000;SDS011;10658;50.920;12.238;2023-07-20T02:09:43;5.25;;;3.33;;
21000;SDS011;10658;50.920;12.238;2023-07-20T02:13:44;9.77;;;4.20;;
21000;SDS011;10658;50.920;12.238;2023-07-20T02:17:45;12.98;;;4.50;;
21000;SDS011;10658;50.920;12.238;2023-07-20T02:21:46;7.97;;;3.72;;
21000;SDS011;10658;50.920;12.238;2023-07-20T02:25:46;11.32;;;4.85;;
21000;SDS011;10658;50.920;12.238;2023-07-20T02:29:47;13.32;;;4.45;;
21000;SDS011;10658;50.920;12.238;2023-07-20T02:33:48;8.77;;;4.10;;
21000;SDS011;10658;50.920;12.238;2023-07-20T02:37:49;7.03;;;4.57;;
21000;SDS011;10658;50.920;12.238;2023-07-20T02:41:50;9.38;;;4.28;;
21000;SDS011;10658;50.920;12.238;2023-07-20T02:45:53;7.55;;;3.50;;
21000;SDS011;10658;50.920;12.238;2023-07-20T02:49:55;4.53;;;3.35;;
21000;SDS011;10658;50.920;12.238;2023-07-20T02:53:59;10.70;;;3.95;;
21000;SDS011;10658;50.920;12.238;2023-07-20T02:58:02;10.65;;;3.33;;
21000;SDS011;10658;50.920;12.238;2023-07-20T03:06:38;6.78;;;2.72;;
21000;SDS011;10658;50.920;12.238;2023-07-20T03:10:41;10.65;;;3.30;;
21000;SDS011;10658;50.920;12.238;2023-07-20T03:14:42;8.32;;;3.17;;
21000;SDS011;10658;50.920;12.238;2023-07-20T03:18:46;8.75;;;3.33;;
21000;SDS011;10658;50.920;12.238;2023-07-20T03:22:48;5.88;;;3.28;;
21000;SDS011;10658;50.920;12.238;2023-07-20T03:26:50;4.30;;;2.58;;
21000;SDS011;10658;50.920;12.238;2023-07-20T03:30:54;10.32;;;3.20;;
21000;SDS011;10658;50.920;12.238;2023-07-20T03:34:57;12.07;;;3.33;;
21000;SDS011;10658;50.920;12.238;2023-07-20T03:39:00;12.48;;;3.58;;
21000;SDS011;10658;50.920;12.238;2023-07-20T03:43:03;8.43;;;3.53;;
21000;SDS011;10658;50.920;12.238;2023-07-20T03:47:06;9.95;;;2.85;;
21000;SDS011;10658;50.920;12.238;2023-07-20T03:51:09;13.18;;;3.28;;
21000;SDS011;10658;50.920;12.238;2023-07-20T03:55:11;9.75;;;3.90;;
21000;SDS011;10658;50.920;12.238;2023-07-20T03:59:14;9.73;;;3.15;;
21000;SDS011;10658;50.920;12.238;2023-07-20T04:03:17;8.60;;;3.47;;
21000;SDS011;10658;50.920;12.238;2023-07-20T04:07:21;12.35;;;3.80;;
21000;SDS011;10658;50.920;12.238;2023-07-20T04:11:23;12.68;;;4.00;;
21000;SDS011;10658;50.920;12.238;2023-07-20T04:15:26;10.45;;;3.58;;
21000;SDS011;10658;50.920;12.238;2023-07-20T04:19:30;5.72;;;3.53;;
21000;SDS011;10658;50.920;12.238;2023-07-20T04:23:33;11.43;;;4.00;;
21000;SDS011;10658;50.920;12.238;2023-07-20T04:27:36;10.50;;;3.75;;
21000;SDS011;10658;50.920;12.238;2023-07-20T04:31:41;15.85;;;5.55;;
21000;SDS011;10658;50.920;12.238;2023-07-20T04:35:53;8.60;;;4.30;;
21000;SDS011;10658;50.920;12.238;2023-07-20T04:40:04;18.65;;;5.35;;
21000;SDS011;10658;50.920;12.238;2023-07-20T04:44:07;19.33;;;5.95;;
21000;SDS011;10658;50.920;12.238;2023-07-20T04:48:11;17.25;;;5.88;;
21000;SDS011;10658;50.920;12.238;2023-07-20T04:52:28;16.88;;;11.07;;
21000;SDS011;10658;50.920;12.238;2023-07-20T04:56:32;11.48;;;7.13;;
21000;SDS011;10658;50.920;12.238;2023-07-20T05:00:39;15.82;;;7.93;;
21000;SDS011;10658;50.920;12.238;2023-07-20T05:04:41;20.55;;;7.65;;
21000;SDS011;10658;50.920;12.238;2023-07-20T05:08:44;8.65;;;4.90;;
21000;SDS011;10658;50.920;12.238;2023-07-20T05:12:47;9.85;;;3.97;;
21000;SDS011;10658;50.920;12.238;2023-07-20T05:16:49;12.98;;;4.38;;
21000;SDS011;10658;50.920;12.238;2023-07-20T05:20:52;8.60;;;4.32;;
21000;SDS011;10658;50.920;12.238;2023-07-20T05:24:56;12.25;;;3.65;;
21000;SDS011;10658;50.920;12.238;2023-07-20T05:28:59;13.15;;;4.70;;
21000;SDS011;10658;50.920;12.238;2023-07-20T05:33:02;12.10;;;4.20;;
21000;SDS011;10658;50.920;12.238;2023-07-20T05:37:05;6.90;;;3.50;;
21000;SDS011;10658;50.920;12.238;2023-07-20T05:41:07;8.68;;;3.67;;
21000;SDS011;10658;50.920;12.238;2023-07-20T05:45:11;9.85;;;4.20;;
21000;SDS011;10658;50.920;12.238;2023-07-20T05:49:14;6.57;;;3.70;;
21000;SDS011;10658;50.920;12.238;2023-07-20T05:53:18;7.55;;;3.97;;
21000;SDS011;10658;50.920;12.238;2023-07-20T05:57:20;9.45;;;4.15;;
21000;SDS011;10658;50.920;12.238;2023-07-20T06:01:23;6.70;;;3.58;;
21000;SDS011;10658;50.920;12.238;2023-07-20T06:05:29;5.55;;;3.72;;
21000;SDS011;10658;50.920;12.238;2023-07-20T06:09:32;7.47;;;4.45;;
21000;SDS011;10658;50.920;12.238;2023-07-20T06:13:35;6.38;;;4.57;;
21000;SDS011;10658;50.920;12.238;2023-07-20T06:17:37;7.97;;;5.45;;
21000;SDS011;10658;50.920;12.238;2023-07-20T06:21:39;5.38;;;4.88;;
21000;SDS011;10658;50.920;12.238;2023-07-20T06:25:43;8.55;;;5.07;;
21000;SDS011;10658;50.920;12.238;2023-07-20T06:29:47;7.57;;;5.60;;
21000;SDS011;10658;50.920;12.238;2023-07-20T06:33:51;12.20;;;6.80;;
21000;SDS011;10658;50.920;12.238;2023-07-20T06:37:54;6.47;;;5.20;;
21000;SDS011;10658;50.920;12.238;2023-07-20T06:41:56;7.88;;;5.28;;
21000;SDS011;10658;50.920;12.238;2023-07-20T06:46:00;5.90;;;4.20;;
21000;SDS011;10658;50.920;12.238;2023-07-20T06:50:08;7.30;;;4.80;;
21000;SDS011;10658;50.920;12.238;2023-07-20T06:54:11;5.38;;;3.85;;
21000;SDS011;10658;50.920;12.238;2023-07-20T06:58:13;5.97;;;4.35;;
21000;SDS011;10658;50.920;12.238;2023-07-20T07:02:15;4.50;;;3.97;;
21000;SDS011;10658;50.920;12.238;2023-07-20T07:06:19;4.40;;;3.72;;
21000;SDS011;10658;50.920;12.238;2023-07-20T07:10:23;7.57;;;4.07;;
21000;SDS011;10658;50.920;12.238;2023-07-20T07:14:26;6.03;;;4.18;;
21000;SDS011;10658;50.920;12.238;2023-07-20T07:18:33;5.18;;;4.47;;
21000;SDS011;10658;50.920;12.238;2023-07-20T07:22:37;6.68;;;4.50;;
21000;SDS011;10658;50.920;12.238;2023-07-20T07:26:40;4.68;;;3.83;;
21000;SDS011;10658;50.920;12.238;2023-07-20T07:30:43;3.88;;;3.53;;
21000;SDS011;10658;50.920;12.238;2023-07-20T07:34:46;7.22;;;4.22;;
21000;SDS011;10658;50.920;12.238;2023-07-20T07:38:50;5.50;;;4.30;;
21000;SDS011;10658;50.920;12.238;2023-07-20T07:42:53;9.45;;;4.50;;
21000;SDS011;10658;50.920;12.238;2023-07-20T07:46:55;5.60;;;3.75;;
21000;SDS011;10658;50.920;12.238;2023-07-20T07:51:05;7.03;;;4.22;;
21000;SDS011;10658;50.920;12.238;2023-07-20T07:55:11;6.07;;;3.90;;
21000;SDS011;10658;50.920;12.238;2023-07-20T07:59:13;4.00;;;3.60;;
21000;SDS011;10658;50.920;12.238;2023-07-20T08:03:16;8.30;;;4.82;;
21000;SDS011;10658;50.920;12.238;2023-07-20T08:07:20;4.03;;;3.25;;
21000;SDS011;10658;50.920;12.238;2023-07-20T08:11:23;6.75;;;3.53;;
21000;SDS011;10658;50.920;12.238;2023-07-20T08:15:26;4.32;;;3.03;;
21000;SDS011;10658;50.920;12.238;2023-07-20T08:19:29;3.58;;;2.58;;
21000;SDS011;10658;50.920;12.238;2023-07-20T08:23:32;3.53;;;2.35;;
21000;SDS011;10658;50.920;12.238;2023-07-20T08:27:35;5.70;;;2.90;;
21000;SDS011;10658;50.920;12.238;2023-07-20T08:31:42;4.35;;;2.10;;
21000;SDS011;10658;50.920;12.238;2023-07-20T08:35:45;6.65;;;2.50;;
21000;SDS011;10658;50.920;12.238;2023-07-20T08:39:48;4.32;;;2.88;;
21000;SDS011;10658;50.920;12.238;2023-07-20T08:43:50;3.80;;;2.63;;
21000;SDS011;10658;50.920;12.238;2023-07-20T08:47:56;2.80;;;1.98;;
21000;SDS011;10658;50.920;12.238;2023-07-20T08:52:00;5.57;;;2.65;;
21000;SDS011;10658;50.920;12.238;2023-07-20T08:56:05;3.42;;;2.28;;
21000;SDS011;10658;50.920;12.238;2023-07-20T09:00:12;3.20;;;2.05;;
21000;SDS011;10658;50.920;12.238;2023-07-20T09:04:16;4.05;;;2.22;;
21000;SDS011;10658;50.920;12.238;2023-07-20T09:08:19;3.05;;;2.55;;
21000;SDS011;10658;50.920;12.238;2023-07-20T09:12:22;3.42;;;2.67;;
21000;SDS011;10658;50.920;12.238;2023-07-20T09:16:24;3.58;;;3.17;;
21000;SDS011;10658;50.920;12.238;2023-07-20T09:20:27;5.85;;;3.17;;
21000;SDS011;10658;50.920;12.238;2023-07-20T09:24:34;6.63;;;3.35;;
21000;SDS011;10658;50.920;12.238;2023-07-20T09:28:44;3.75;;;3.35;;
21000;SDS011;10658;50.920;12.238;2023-07-20T09:32:51;4.20;;;3.20;;
21000;SDS011;10658;50.920;12.238;2023-07-20T09:36:54;5.70;;;3.65;;
21000;SDS011;10658;50.920;12.238;2023-07-20T09:40:59;5.85;;;4.13;;
21000;SDS011;10658;50.920;12.238;2023-07-20T09:45:02;4.45;;;4.03;;
21000;SDS011;10658;50.920;12.238;2023-07-20T09:49:08;5.03;;;3.72;;
21000;SDS011;10658;50.920;12.238;2023-07-20T09:53:12;3.97;;;3.08;;
21000;SDS011;10658;50.920;12.238;2023-07-20T09:57:15;3.83;;;3.33;;
21000;SDS011;10658;50.920;12.238;2023-07-20T10:01:20;3.55;;;3.25;;
21000;SDS011;10658;50.920;12.238;2023-07-20T10:05:23;5.43;;;2.72;;
21000;SDS011;10658;50.920;12.238;2023-07-20T10:09:29;4.30;;;3.63;;
21000;SDS011;10658;50.920;12.238;2023-07-20T10:13:36;4.80;;;3.22;;
21000;SDS011;10658;50.920;12.238;2023-07-20T10:18:17;5.10;;;3.63;;
21000;SDS011;10658;50.920;12.238;2023-07-20T10:22:30;6.25;;;3.10;;
21000;SDS011;10658;50.920;12.238;2023-07-20T10:26:37;4.05;;;2.35;;
21000;SDS011;10658;50.920;12.238;2023-07-20T10:30:42;4.43;;;2.28;;
21000;SDS011;10658;50.920;12.238;2023-07-20T10:34:51;7.35;;;3.30;;
21000;SDS011;10658;50.920;12.238;2023-07-20T10:39:04;8.80;;;3.70;;
21000;SDS011;10658;50.920;12.238;2023-07-20T10:43:24;3.55;;;2.55;;
21000;SDS011;10658;50.920;12.238;2023-07-20T10:47:44;3.15;;;2.80;;
21000;SDS011;10658;50.920;12.238;2023-07-20T10:51:49;4.28;;;2.47;;
21000;SDS011;10658;50.920;12.238;2023-07-20T10:56:11;3.08;;;2.72;;
21000;SDS011;10658;50.920;12.238;2023-07-20T11:00:19;4.22;;;2.70;;
21000;SDS011;10658;50.920;12.238;2023-07-20T11:04:40;3.40;;;2.45;;
21000;SDS011;10658;50.920;12.238;2023-07-20T11:08:45;3.28;;;2.25;;
21000;SDS011;10658;50.920;12.238;2023-07-20T11:17:31;2.15;;;2.00;;
21000;SDS011;10658;50.920;12.238;2023-07-20T11:21:38;3.25;;;2.33;;
21000;SDS011;10658;50.920;12.238;2023-07-20T11:25:44;2.53;;;2.00;;
21000;SDS011;10658;50.920;12.238;2023-07-20T11:29:48;2.90;;;2.60;;
21000;SDS011;10658;50.920;12.238;2023-07-20T11:33:56;4.85;;;2.95;;
21000;SDS011;10658;50.920;12.238;2023-07-20T11:38:02;2.58;;;2.38;;
21000;SDS011;10658;50.920;12.238;2023-07-20T11:42:11;3.35;;;2.83;;
21000;SDS011;10658;50.920;12.238;2023-07-20T11:46:14;4.18;;;2.55;;
21000;SDS011;10658;50.920;12.238;2023-07-20T11:50:21;2.90;;;2.67;;
21000;SDS011;10658;50.920;12.238;2023-07-20T11:54:23;4.00;;;2.53;;
21000;SDS011;10658;50.920;12.238;2023-07-20T11:58:27;4.28;;;2.20;;
21000;SDS011;10658;50.920;12.238;2023-07-20T12:02:31;4.90;;;2.95;;
21000;SDS011;10658;50.920;12.238;2023-07-20T12:06:34;3.00;;;2.60;;
21000;SDS011;10658;50.920;12.238;2023-07-20T12:10:39;4.93;;;2.72;;
21000;SDS011;10658;50.920;12.238;2023-07-20T12:14:45;2.95;;;2.28;;
21000;SDS011;10658;50.920;12.238;2023-07-20T12:18:47;2.95;;;2.63;;
21000;SDS011;10658;50.920;12.238;2023-07-20T12:22:50;5.47;;;3.45;;
21000;SDS011;10658;50.920;12.238;2023-07-20T12:26:58;3.88;;;3.25;;
21000;SDS011;10658;50.920;12.238;2023-07-20T12:31:01;3.53;;;3.15;;
21000;SDS011;10658;50.920;12.238;2023-07-20T12:35:05;2.85;;;2.50;;
21000;SDS011;10658;50.920;12.238;2023-07-20T12:39:11;2.60;;;1.70;;
21000;SDS011;10658;50.920;12.238;2023-07-20T12:43:15;2.28;;;2.00;;
21000;SDS011;10658;50.920;12.238;2023-07-20T12:47:18;3.22;;;2.03;;
21000;SDS011;10658;50.920;12.238;2023-07-20T12:51:21;2.25;;;2.05;;
21000;SDS011;10658;50.920;12.238;2023-07-20T12:55:24;2.42;;;2.22;;
21000;SDS011;10658;50.920;12.238;2023-07-20T12:59:26;1.95;;;1.85;;
21000;SDS011;10658;50.920;12.238;2023-07-20T13:03:29;2.65;;;2.35;;
21000;SDS011;10658;50.920;12.238;2023-07-20T13:07:34;2.20;;;1.98;;
21000;SDS011;10658;50.920;12.238;2023-07-20T13:11:38;1.98;;;1.77;;
21000;SDS011;10658;50.920;12.238;2023-07-20T13:15:41;2.25;;;2.05;;
21000;SDS011;10658;50.920;12.238;2023-07-20T13:19:46;2.08;;;1.80;;
21000;SDS011;10658;50.920;12.238;2023-07-20T13:23:48;1.50;;;1.40;;
21000;SDS011;10658;50.920;12.238;2023-07-20T13:27:51;1.70;;;1.42;;
21000;SDS011;10658;50.920;12.238;2023-07-20T13:31:54;2.40;;;1.55;;
21000;SDS011;10658;50.920;12.238;2023-07-20T13:35:59;2.45;;;1.90;;
21000;SDS011;10658;50.920;12.238;2023-07-20T13:40:02;3.33;;;2.00;;
21000;SDS011;10658;50.920;12.238;2023-07-20T13:44:09;1.80;;;1.70;;
21000;SDS011;10658;50.920;12.238;2023-07-20T13:48:12;2.00;;;1.88;;
21000;SDS011;10658;50.920;12.238;2023-07-20T13:52:16;2.10;;;1.90;;
21000;SDS011;10658;50.920;12.238;2023-07-20T13:56:18;1.88;;;1.60;;
21000;SDS011;10658;50.920;12.238;2023-07-20T14:00:21;1.70;;;1.60;;
21000;SDS011;10658;50.920;12.238;2023-07-20T14:04:25;2.28;;;1.90;;
21000;SDS011;10658;50.920;12.238;2023-07-20T14:08:31;3.08;;;2.25;;
21000;SDS011;10658;50.920;12.238;2023-07-20T14:12:34;1.90;;;1.80;;
21000;SDS011;10658;50.920;12.238;2023-07-20T14:16:36;2.30;;;2.00;;
21000;SDS011;10658;50.920;12.238;2023-07-20T14:20:39;1.85;;;1.73;;
21000;SDS011;10658;50.920;12.238;2023-07-20T14:24:41;2.45;;;2.25;;
21000;SDS011;10658;50.920;12.238;2023-07-20T14:28:44;2.50;;;1.88;;
21000;SDS011;10658;50.920;12.238;2023-07-20T14:32:47;1.40;;;1.30;;
21000;SDS011;10658;50.920;12.238;2023-07-20T14:36:49;1.77;;;1.27;;
21000;SDS011;10658;50.920;12.238;2023-07-20T14:40:53;1.30;;;1.20;;
21000;SDS011;10658;50.920;12.238;2023-07-20T14:44:55;2.28;;;0.80;;
21000;SDS011;10658;50.920;12.238;2023-07-20T14:48:58;1.85;;;0.95;;
21000;SDS011;10658;50.920;12.238;2023-07-20T14:53:00;1.20;;;1.10;;
21000;SDS011;10658;50.920;12.238;2023-07-20T14:57:03;0.73;;;0.73;;
21000;SDS011;10658;50.920;12.238;2023-07-20T15:01:08;1.10;;;0.70;;
21000;SDS011;10658;50.920;12.238;2023-07-20T15:05:10;0.88;;;0.68;;
21000;SDS011;10658;50.920;12.238;2023-07-20T15:09:13;0.57;;;0.57;;
21000;SDS011;10658;50.920;12.238;2023-07-20T15:13:21;2.05;;;0.82;;
21000;SDS011;10658;50.920;12.238;2023-07-20T15:17:27;1.17;;;0.50;;
21000;SDS011;10658;50.920;12.238;2023-07-20T15:21:33;0.77;;;0.57;;
21000;SDS011;10658;50.920;12.238;2023-07-20T15:25:41;11.43;;;2.03;;
21000;SDS011;10658;50.920;12.238;2023-07-20T15:29:52;1.48;;;0.70;;
21000;SDS011;10658;50.920;12.238;2023-07-20T15:33:59;0.52;;;0.52;;
21000;SDS011;10658;50.920;12.238;2023-07-20T15:38:01;0.75;;;0.75;;
21000;SDS011;10658;50.920;12.238;2023-07-20T15:42:03;1.50;;;0.80;;
21000;SDS011;10658;50.920;12.238;2023-07-20T15:50:40;0.75;;;0.75;;
21000;SDS011;10658;50.920;12.238;2023-07-20T15:54:41;2.70;;;0.65;;
21000;SDS011;10658;50.920;12.238;2023-07-20T15:58:42;1.80;;;0.85;;
21000;SDS011;10658;50.920;12.238;2023-07-20T16:02:44;2.20;;;0.80;;
21000;SDS011;10658;50.920;12.238;2023-07-20T16:06:45;0.88;;;0.63;;
21000;SDS011;10658;50.920;12.238;2023-07-20T16:10:46;2.33;;;1.20;;
21000;SDS011;10658;50.920;12.238;2023-07-20T16:14:47;1.15;;;0.80;;
21000;SDS011;10658;50.920;12.238;2023-07-20T16:18:52;1.52;;;0.95;;
21000;SDS011;10658;50.920;12.238;2023-07-20T16:22:55;1.20;;;1.02;;
21000;SDS011;10658;50.920;12.238;2023-07-20T16:26:58;1.95;;;1.08;;
21000;SDS011;10658;50.920;12.238;2023-07-20T16:31:06;1.17;;;1.08;;
21000;SDS011;10658;50.920;12.238;2023-07-20T16:35:11;0.65;;;0.65;;
21000;SDS011;10658;50.920;12.238;2023-07-20T16:39:14;1.08;;;0.88;;
21000;SDS011;10658;50.920;12.238;2023-07-20T16:43:17;1.02;;;0.93;;
21000;SDS011;10658;50.920;12.238;2023-07-20T16:47:19;1.15;;;0.90;;
21000;SDS011;10658;50.920;12.238;2023-07-20T16:51:21;1.02;;;1.02;;
21000;SDS011;10658;50.920;12.238;2023-07-20T16:55:22;1.13;;;1.00;;
21000;SDS011;10658;50.920;12.238;2023-07-20T16:59:23;2.53;;;0.93;;
21000;SDS011;10658;50.920;12.238;2023-07-20T17:03:24;0.82;;;0.82;;
21000;SDS011;10658;50.920;12.238;2023-07-20T17:07:25;0.88;;;0.88;;
21000;SDS011;10658;50.920;12.238;2023-07-20T17:11:26;1.00;;;0.90;;
21000;SDS011;10658;50.920;12.238;2023-07-20T17:15:27;1.27;;;0.98;;
21000;SDS011;10658;50.920;12.238;2023-07-20T17:19:28;0.93;;;0.93;;
21000;SDS011;10658;50.920;12.238;2023-07-20T17:23:28;0.68;;;0.68;;
21000;SDS011;10658;50.920;12.238;2023-07-20T17:27:31;2.25;;;1.00;;
21000;SDS011;10658;50.920;12.238;2023-07-20T17:31:32;0.95;;;0.88;;
21000;SDS011;10658;50.920;12.238;2023-07-20T17:35:33;1.00;;;0.88;;
21000;SDS011;10658;50.920;12.238;2023-07-20T17:39:33;0.60;;;0.60;;
21000;SDS011;10658;50.920;12.238;2023-07-20T17:43:34;1.45;;;0.90;;
21000;SDS011;10658;50.920;12.238;2023-07-20T17:47:36;2.13;;;0.95;;
21000;SDS011;10658;50.920;12.238;2023-07-20T17:51:38;1.15;;;0.70;;
21000;SDS011;10658;50.920;12.238;2023-07-20T17:55:43;1.13;;;1.02;;
21000;SDS011;10658;50.920;12.238;2023-07-20T17:59:43;1.15;;;0.70;;
21000;SDS011;10658;50.920;12.238;2023-07-20T18:03:44;0.88;;;0.80;;
21000;SDS011;10658;50.920;12.238;2023-07-20T18:07:45;0.73;;;0.70;;
21000;SDS011;10658;50.920;12.238;2023-07-20T18:11:46;1.00;;;0.90;;
21000;SDS011;10658;50.920;12.238;2023-07-20T18:15:53;0.80;;;0.70;;
21000;SDS011;10658;50.920;12.238;2023-07-20T18:19:55;0.88;;;0.88;;
21000;SDS011;10658;50.920;12.238;2023-07-20T18:23:56;2.10;;;1.00;;
21000;SDS011;10658;50.920;12.238;2023-07-20T18:27:56;1.35;;;1.13;;
21000;SDS011;10658;50.920;12.238;2023-07-20T18:31:57;1.17;;;1.00;;
21000;SDS011;10658;50.920;12.238;2023-07-20T18:35:59;1.25;;;1.15;;
21000;SDS011;10658;50.920;12.238;2023-07-20T18:40:00;1.58;;;1.48;;
21000;SDS011;10658;50.920;12.238;2023-07-20T18:44:04;0.70;;;0.70;;
21000;SDS011;10658;50.920;12.238;2023-07-20T18:48:05;1.50;;;0.93;;
21000;SDS011;10658;50.920;12.238;2023-07-20T18:52:09;1.30;;;1.20;;
21000;SDS011;10658;50.920;12.238;2023-07-20T18:56:12;3.08;;;1.27;;
21000;SDS011;10658;50.920;12.238;2023-07-20T19:00:15;1.63;;;0.93;;
21000;SDS011;10658;50.920;12.238;2023-07-20T19:04:19;1.27;;;1.05;;
21000;SDS011;10658;50.920;12.238;2023-07-20T19:08:23;1.63;;;1.52;;
21000;SDS011;10658;50.920;12.238;2023-07-20T19:12:25;1.73;;;1.63;;
21000;SDS011;10658;50.920;12.238;2023-07-20T19:16:27;1.20;;;1.10;;
21000;SDS011;10658;50.920;12.238;2023-07-20T19:20:30;1.40;;;1.30;;
21000;SDS011;10658;50.920;12.238;2023-07-20T19:24:33;3.28;;;1.10;;
21000;SDS011;10658;50.920;12.238;2023-07-20T19:28:38;1.58;;;1.30;;
21000;SDS011;10658;50.920;12.238;2023-07-20T19:32:41;1.30;;;1.20;;
21000;SDS011;10658;50.920;12.238;2023-07-20T19:36:45;1.20;;;1.02;;
21000;SDS011;10658;50.920;12.238;2023-07-20T19:40:50;1.05;;;1.02;;
21000;SDS011;10658;50.920;12.238;2023-07-20T19:44:57;0.93;;;0.90;;
21000;SDS011;10658;50.920;12.238;2023-07-20T19:48:59;1.30;;;1.15;;
21000;SDS011;10658;50.920;12.238;2023-07-20T19:53:00;1.02;;;1.02;;
21000;SDS011;10658;50.920;12.238;2023-07-20T19:57:01;1.00;;;0.90;;
21000;SDS011;10658;50.920;12.238;2023-07-20T20:01:02;3.35;;;1.00;;
21000;SDS011;10658;50.920;12.238;2023-07-20T20:05:03;2.35;;;0.88;;
21000;SDS011;10658;50.920;12.238;2023-07-20T20:09:04;1.20;;;1.10;;
21000;SDS011;10658;50.920;12.238;2023-07-20T20:13:05;2.03;;;1.00;;
21000;SDS011;10658;50.920;12.238;2023-07-20T20:17:07;1.33;;;1.23;;
21000;SDS011;10658;50.920;12.238;2023-07-20T20:21:09;1.08;;;1.05;;
21000;SDS011;10658;50.920;12.238;2023-07-20T20:25:12;3.63;;;1.30;;
21000;SDS011;10658;50.920;12.238;2023-07-20T20:29:13;2.08;;;1.02;;
21000;SDS011;10658;50.920;12.238;2023-07-20T20:33:14;1.02;;;0.70;;
21000;SDS011;10658;50.920;12.238;2023-07-20T20:37:19;1.25;;;1.02;;
21000;SDS011;10658;50.920;12.238;2023-07-20T20:41:24;3.42;;;1.00;;
21000;SDS011;10658;50.920;12.238;2023-07-20T20:45:30;3.90;;;1.20;;
21000;SDS011;10658;50.920;12.238;2023-07-20T20:49:36;1.20;;;1.10;;
21000;SDS011;10658;50.920;12.238;2023-07-20T20:53:45;4.20;;;1.15;;
21000;SDS011;10658;50.920;12.238;2023-07-20T20:57:46;1.70;;;0.73;;
21000;SDS011;10658;50.920;12.238;2023-07-20T21:01:47;2.13;;;1.10;;
21000;SDS011;10658;50.920;12.238;2023-07-20T21:05:48;4.40;;;1.17;;
21000;SDS011;10658;50.920;12.238;2023-07-20T21:09:49;1.10;;;0.88;;
21000;SDS011;10658;50.920;12.238;2023-07-20T21:13:50;2.25;;;1.20;;
21000;SDS011;10658;50.920;12.238;2023-07-20T21:17:51;1.73;;;1.20;;
21000;SDS011;10658;50.920;12.238;2023-07-20T21:21:51;4.35;;;1.02;;
21000;SDS011;10658;50.920;12.238;2023-07-20T21:25:52;2.17;;;1.17;;
21000;SDS011;10658;50.920;12.238;2023-07-20T21:29:53;1.52;;;1.13;;
21000;SDS011;10658;50.920;12.238;2023-07-20T21:33:54;3.05;;;1.10;;
21000;SDS011;10658;50.920;12.238;2023-07-20T21:37:55;3.83;;;1.30;;
21000;SDS011;10658;50.920;12.238;2023-07-20T21:41:55;1.33;;;1.20;;
21000;SDS011;10658;50.920;12.238;2023-07-20T21:45:56;2.13;;;1.10;;
21000;SDS011;10658;50.920;12.238;2023-07-20T21:49:57;1.80;;;1.23;;
21000;SDS011;10658;50.920;12.238;2023-07-20T21:53:58;2.85;;;1.23;;
21000;SDS011;10658;50.920;12.238;2023-07-20T21:57:59;3.58;;;1.48;;
21000;SDS011;10658;50.920;12.238;2023-07-20T22:02:00;3.90;;;1.10;;
21000;SDS011;10658;50.920;12.238;2023-07-20T22:06:01;2.75;;;1.48;;
21000;SDS011;10658;50.920;12.238;2023-07-20T22:10:03;2.42;;;1.52;;
21000;SDS011;10658;50.920;12.238;2023-07-20T22:14:03;5.78;;;1.40;;
21000;SDS011;10658;50.920;12.238;2023-07-20T22:18:04;2.00;;;1.73;;
21000;SDS011;10658;50.920;12.238;2023-07-20T22:22:05;2.85;;;1.35;;
21000;SDS011;10658;50.920;12.238;2023-07-20T22:26:06;1.90;;;1.55;;
21000;SDS011;10658;50.920;12.238;2023-07-20T22:30:07;1.92;;;1.30;;
21000;SDS011;10658;50.920;12.238;2023-07-20T22:34:12;2.80;;;1.70;;
21000;SDS011;10658;50.920;12.238;2023-07-20T22:38:13;3.90;;;2.53;;
21000;SDS011;10658;50.920;12.238;2023-07-20T22:42:13;4.65;;;1.70;;
21000;SDS011;10658;50.920;12.238;2023-07-20T22:46:14;1.52;;;1.42;;
21000;SDS011;10658;50.920;12.238;2023-07-20T22:50:17;2.47;;;1.50;;
21000;SDS011;10658;50.920;12.238;2023-07-20T22:54:18;2.05;;;1.42;;
21000;SDS011;10658;50.920;12.238;2023-07-20T22:58:20;2.47;;;2.28;;
21000;SDS011;10658;50.920;12.238;2023-07-20T23:02:20;1.63;;;1.52;;
21000;SDS011;10658;50.920;12.238;2023-07-20T23:06:21;3.78;;;1.95;;
21000;SDS011;10658;50.920;12.238;2023-07-20T23:10:22;4.03;;;1.63;;
21000;SDS011;10658;50.920;12.238;2023-07-20T23:14:23;2.33;;;1.50;;
21000;SDS011;10658;50.920;12.238;2023-07-20T23:18:24;1.67;;;1.58;;
21000;SDS011;10658;50.920;12.238;2023-07-20T23:22:24;2.05;;;1.63;;
21000;SDS011;10658;50.920;12.238;2023-07-20T23:26:25;8.13;;;1.60;;
21000;SDS011;10658;50.920;12.238;2023-07-20T23:30:26;2.20;;;2.00;;
21000;SDS011;10658;50.920;12.238;2023-07-20T23:34:29;1.65;;;1.25;;
21000;SDS011;10658;50.920;12.238;2023-07-20T23:38:30;1.88;;;1.70;;
21000;SDS011;10658;50.920;12.238;2023-07-20T23:42:31;1.48;;;1.38;;
21000;SDS011;10658;50.920;12.238;2023-07-20T23:46:32;3.10;;;1.70;;
21000;SDS011;10658;50.920;12.238;2023-07-20T23:50:33;4.75;;;1.55;;
21000;SDS011;10658;50.920;12.238;2023-07-20T23:54:34;3.03;;;1.65;;
21000;SDS011;10658;50.920;12.238;2023-07-20T23:58:35;2.75;;;1.38;;
